createdAt,value
2022-10-06T00:01:46.129Z,31.6
2022-10-06T00:04:02.337Z,31.4
2022-10-06T00:06:18.151Z,31.8
2022-10-06T00:08:35.154Z,31.6
2022-10-06T00:10:52.061Z,31.6
2022-10-06T00:13:08.460Z,31.4
2022-10-06T00:15:24.475Z,31.4
2022-10-06T00:17:41.251Z,31.4
2022-10-06T00:19:58.252Z,31.1
2022-10-06T00:22:15.314Z,31.5
2022-10-06T00:24:32.142Z,31.3
2022-10-06T00:26:48.865Z,31.5
2022-10-06T00:29:05.818Z,31.7
2022-10-06T00:31:22.769Z,31.5
2022-10-06T00:33:39.564Z,31.4
2022-10-06T00:35:56.541Z,31.4
2022-10-06T00:38:13.431Z,31.4
2022-10-06T00:40:30.298Z,31.6
2022-10-06T00:42:47.106Z,31.1
2022-10-06T00:45:04.063Z,31.4
2022-10-06T00:47:20.922Z,31.6
2022-10-06T00:49:37.860Z,31.4
2022-10-06T00:51:54.185Z,31.5
2022-10-06T00:54:10.082Z,31.8
2022-10-06T00:56:27.293Z,31.8
2022-10-06T00:58:44.270Z,31.4
2022-10-06T01:01:01.371Z,31.4
2022-10-06T01:03:18.349Z,31.3
2022-10-06T01:05:35.256Z,31.2
2022-10-06T01:07:52.537Z,31.1
2022-10-06T01:10:09.492Z,31.5
2022-10-06T01:12:26.451Z,31.4
2022-10-06T01:14:42.762Z,31.3
2022-10-06T01:16:58.366Z,31.8
2022-10-06T01:19:14.513Z,32.4
2022-10-06T01:21:31.471Z,31.8
2022-10-06T01:23:48.741Z,31.1
2022-10-06T01:26:05.056Z,31
2022-10-06T01:28:21.352Z,31.2
2022-10-06T01:30:38.370Z,31.8
2022-10-06T01:32:55.618Z,31.4
2022-10-06T01:35:12.484Z,31.5
2022-10-06T01:37:29.625Z,31.2
2022-10-06T01:39:46.531Z,31.4
2022-10-06T01:42:03.742Z,31.3
2022-10-06T01:44:20.652Z,31.1
2022-10-06T01:46:37.732Z,31.4
2022-10-06T01:48:54.089Z,31.6
2022-10-06T01:51:10.076Z,30.9
2022-10-06T01:53:26.777Z,31.5
2022-10-06T01:55:42.894Z,31.4
2022-10-06T01:57:59.993Z,31.8
2022-10-06T02:00:16.953Z,31.2
2022-10-06T02:04:49.517Z,31.9
2022-10-06T02:07:06.591Z,31.9
2022-10-06T02:09:23.835Z,31
2022-10-06T02:11:40.640Z,31.3
2022-10-06T02:13:56.409Z,30.9
2022-10-06T02:16:13.552Z,31.6
2022-10-06T02:18:31.076Z,31.2
2022-10-06T02:20:48.035Z,31.2
2022-10-06T02:23:04.217Z,31.3
2022-10-06T02:25:19.708Z,31.1
2022-10-06T02:27:36.278Z,33
2022-10-06T02:32:10.410Z,31.3
2022-10-06T02:34:27.418Z,31.3
2022-10-06T02:36:44.272Z,31.4
2022-10-06T02:39:01.513Z,31.2
2022-10-06T02:41:18.352Z,31.4
2022-10-06T02:43:35.568Z,31.3
2022-10-06T02:45:52.574Z,31.1
2022-10-06T02:48:09.632Z,31.1
2022-10-06T02:50:25.995Z,31.3
2022-10-06T02:52:41.969Z,30.7
2022-10-06T02:54:59.218Z,31.4
2022-10-06T02:57:16.178Z,31.1
2022-10-06T02:59:32.914Z,30.6
2022-10-06T03:01:48.545Z,31.4
2022-10-06T03:04:04.795Z,33.2
2022-10-06T03:06:21.517Z,31.6
2022-10-06T03:08:37.912Z,31.9
2022-10-06T03:10:54.933Z,31.5
2022-10-06T03:13:12.376Z,31.5
2022-10-06T03:15:29.241Z,31.4
2022-10-06T03:17:46.414Z,30.8
2022-10-06T03:20:03.360Z,31.4
2022-10-06T03:22:20.247Z,30.9
2022-10-06T03:24:37.459Z,31
2022-10-06T03:26:54.443Z,31.2
2022-10-06T03:29:12.088Z,31.1
2022-10-06T03:31:28.615Z,31.2
2022-10-06T03:33:45.752Z,30.9
2022-10-06T03:36:02.759Z,31.2
2022-10-06T03:38:19.619Z,31.1
2022-10-06T03:40:36.800Z,31.3
2022-10-06T03:42:53.285Z,31.3
2022-10-06T03:45:09.061Z,30.7
2022-10-06T03:47:25.454Z,32.9
2022-10-06T03:49:41.451Z,32.4
2022-10-06T03:51:58.579Z,31.2
2022-10-06T03:54:15.281Z,31.6
2022-10-06T03:56:31.473Z,32.1
2022-10-06T03:58:48.819Z,32.6
2022-10-06T04:01:05.842Z,31.4
2022-10-06T04:03:22.567Z,31.1
2022-10-06T04:05:38.683Z,30.7
2022-10-06T04:07:55.741Z,31.6
2022-10-06T04:10:13.004Z,30.9
2022-10-06T04:12:29.987Z,31.3
2022-10-06T04:14:47.165Z,31.2
2022-10-06T04:17:03.574Z,31.1
2022-10-06T04:19:19.972Z,31.3
2022-10-06T04:21:36.972Z,32
2022-10-06T04:23:54.122Z,30.9
2022-10-06T04:26:10.738Z,31.1
2022-10-06T04:28:27.289Z,31.6
2022-10-06T04:30:44.120Z,31.6
2022-10-06T04:33:00.547Z,31.4
2022-10-06T04:35:16.576Z,32.6
2022-10-06T04:37:32.822Z,32.3
2022-10-06T04:39:50.162Z,31.6
2022-10-06T04:42:07.276Z,31.7
2022-10-06T04:44:24.552Z,31.3
2022-10-06T04:46:55.125Z,30.9
2022-10-06T04:49:14.905Z,30.6
2022-10-06T04:51:27.538Z,32.5
2022-10-06T04:53:44.381Z,31.7
2022-10-06T04:56:01.501Z,31.5
2022-10-06T04:58:18.455Z,31.4
2022-10-06T05:00:35.543Z,31.1
2022-10-06T05:02:51.981Z,31.1
2022-10-06T05:05:08.160Z,31.6
2022-10-06T05:07:25.164Z,32.3
2022-10-06T05:09:41.738Z,31.6
2022-10-06T05:11:57.479Z,32.6
2022-10-06T05:14:14.232Z,31.7
2022-10-06T05:16:30.708Z,31.5
2022-10-06T05:18:46.894Z,33.3
2022-10-06T05:21:06.581Z,31.8
2022-10-06T05:23:21.217Z,31.6
2022-10-06T05:25:37.994Z,31.6
2022-10-06T05:27:55.068Z,31.3
2022-10-06T05:30:11.504Z,31.4
2022-10-06T05:32:27.626Z,32.3
2022-10-06T05:34:44.304Z,32.8
2022-10-06T05:37:00.243Z,33.1
2022-10-06T05:39:16.710Z,33.2
2022-10-06T05:41:33.638Z,33.1
2022-10-06T05:43:50.687Z,33.1
2022-10-06T05:46:07.806Z,33.6
2022-10-06T05:48:24.222Z,33.5
2022-10-06T05:50:40.300Z,34.4
2022-10-06T05:52:56.890Z,34.1
2022-10-06T05:55:12.786Z,35.8
2022-10-06T05:57:29.019Z,34.8
2022-10-06T05:59:46.469Z,34.7
2022-10-06T06:02:03.438Z,34.6
2022-10-06T06:04:19.675Z,34.5
2022-10-06T06:06:35.472Z,35.1
2022-10-06T06:08:51.683Z,35.6
2022-10-06T06:11:08.768Z,34.9
2022-10-06T06:13:25.802Z,35.3
2022-10-06T06:15:42.814Z,35.3
2022-10-06T06:17:59.151Z,35.1
2022-10-06T06:20:14.766Z,34.6
2022-10-06T06:22:30.580Z,34.7
2022-10-06T06:24:46.889Z,34.3
2022-10-06T06:27:04.012Z,34.3
2022-10-06T06:29:20.893Z,34.6
2022-10-06T06:31:37.921Z,34.3
2022-10-06T06:33:54.312Z,34.1
2022-10-06T06:36:10.044Z,33.4
2022-10-06T06:38:27.579Z,33.8
2022-10-06T06:40:44.054Z,33.9
2022-10-06T06:43:00.779Z,33.8
2022-10-06T06:45:17.844Z,33.6
2022-10-06T06:47:34.584Z,33.5
2022-10-06T06:49:51.431Z,33.6
2022-10-06T06:52:08.206Z,33.8
2022-10-06T06:54:24.969Z,33.5
2022-10-06T06:56:41.622Z,33.1
2022-10-06T06:58:58.358Z,33.4
2022-10-06T07:03:55.873Z,33
2022-10-06T07:06:00.251Z,32.9
2022-10-06T07:08:16.983Z,33.5
2022-10-06T07:10:33.493Z,33.1
2022-10-06T07:12:49.780Z,33
2022-10-06T07:15:06.156Z,33.4
2022-10-06T07:17:22.709Z,33.3
2022-10-06T07:19:39.161Z,33.2
2022-10-06T07:21:55.507Z,33
2022-10-06T07:24:11.904Z,33.4
2022-10-06T07:26:28.410Z,33.4
2022-10-06T07:28:44.768Z,33.9
2022-10-06T07:31:01.366Z,33.1
2022-10-06T07:33:16.952Z,33.2
2022-10-06T07:35:31.715Z,32.7
2022-10-06T07:37:46.731Z,33.4
2022-10-06T07:40:01.669Z,33.1
2022-10-06T07:42:35.891Z,33.4
2022-10-06T07:44:51.767Z,33.7
2022-10-06T07:47:08.310Z,33.4
2022-10-06T07:49:24.678Z,32.9
2022-10-06T07:51:40.908Z,30.9
2022-10-06T07:53:57.011Z,31.3
2022-10-06T07:56:13.126Z,31.6
2022-10-06T07:58:29.487Z,31.9
2022-10-06T08:00:44.908Z,31.4
2022-10-06T08:03:00.333Z,32.4
2022-10-06T08:05:16.512Z,31.8
2022-10-06T08:07:32.705Z,31.7
2022-10-06T08:09:48.842Z,31.5
2022-10-06T08:12:04.846Z,31.6
2022-10-06T08:14:21.124Z,31.3
2022-10-06T08:16:36.665Z,31.4
2022-10-06T08:19:16.890Z,32.4
2022-10-06T08:21:32.292Z,33.2
2022-10-06T08:23:47.963Z,31.8
2022-10-06T08:26:18.793Z,32.9
2022-10-06T08:28:33.446Z,32.9
2022-10-06T08:30:48.471Z,34.3
2022-10-06T08:33:03.493Z,33.4
2022-10-06T08:35:18.644Z,33.2
2022-10-06T08:37:43.997Z,33.5
2022-10-06T08:39:59.213Z,33.3
2022-10-06T08:42:14.729Z,34
2022-10-06T08:44:30.828Z,31.4
2022-10-06T08:46:45.982Z,33.3
2022-10-06T08:49:01.972Z,32.4
2022-10-06T08:51:17.483Z,32.7
2022-10-06T08:53:32.967Z,32.4
2022-10-06T08:55:48.250Z,32.3
2022-10-06T08:58:03.925Z,31.4
2022-10-06T09:00:21.111Z,33.1
2022-10-06T09:02:34.269Z,32.4
2022-10-06T09:04:50.185Z,32.2
2022-10-06T09:07:09.167Z,32.9
2022-10-06T09:09:20.152Z,33.6
2022-10-06T09:11:35.693Z,33.4
2022-10-06T09:13:50.607Z,33.8
2022-10-06T09:16:06.010Z,34.6
2022-10-06T09:18:21.255Z,34.2
2022-10-06T09:20:51.751Z,33.9
2022-10-06T09:23:07.036Z,34.4
2022-10-06T09:27:37.989Z,34.3
2022-10-06T09:29:54.053Z,34.6
2022-10-06T09:32:09.871Z,31.5
2022-10-06T09:34:24.938Z,33.6
2022-10-06T09:36:40.451Z,34.6
2022-10-06T09:38:56.016Z,32.9
2022-10-06T09:41:11.850Z,34.5
2022-10-06T09:43:27.191Z,34.2
2022-10-06T09:45:43.149Z,34.5
2022-10-06T09:47:58.670Z,34.4
2022-10-06T09:50:14.303Z,33.3
2022-10-06T09:52:30.172Z,34.3
2022-10-06T09:54:45.947Z,33.5
2022-10-06T09:57:01.514Z,33.8
2022-10-06T09:59:17.507Z,33.8
2022-10-06T10:01:33.118Z,33.8
2022-10-06T10:04:02.316Z,33.9
2022-10-06T10:06:18.652Z,34.1
2022-10-06T10:10:50.137Z,33.7
2022-10-06T10:13:05.838Z,33.4
2022-10-06T10:15:21.457Z,33.5
2022-10-06T10:17:37.175Z,34.2
2022-10-06T10:19:52.985Z,33.8
2022-10-06T10:22:08.735Z,34.3
2022-10-06T10:24:24.412Z,33.8
2022-10-06T10:26:40.258Z,33.9
2022-10-06T10:28:56.467Z,34
2022-10-06T10:31:11.694Z,33.3
2022-10-06T10:33:27.338Z,34.1
2022-10-06T10:35:45.266Z,33.9
2022-10-06T10:38:01.055Z,34.3
2022-10-06T10:40:16.850Z,34.3
2022-10-06T10:42:32.591Z,33.9
2022-10-06T10:44:48.236Z,33.5
2022-10-06T10:47:04.219Z,33.8
2022-10-06T10:49:19.800Z,33.5
2022-10-06T10:51:35.489Z,33.6
2022-10-06T10:53:50.653Z,33.3
2022-10-06T10:56:06.997Z,33.6
2022-10-06T10:58:22.833Z,33.9
2022-10-06T11:00:38.424Z,33.6
2022-10-06T11:02:54.122Z,34.1
2022-10-06T11:05:09.968Z,33.2
2022-10-06T11:09:41.598Z,33.4
2022-10-06T11:11:57.419Z,33.9
2022-10-06T11:14:12.941Z,33.6
2022-10-06T11:16:28.696Z,33.4
2022-10-06T11:18:44.446Z,33.4
2022-10-06T11:21:00.096Z,33.4
2022-10-06T11:23:15.881Z,33.4
2022-10-06T11:25:32.793Z,33.8
2022-10-06T11:27:47.416Z,33.1
2022-10-06T11:30:03.118Z,33.5
2022-10-06T11:32:19.098Z,33.2
2022-10-06T11:34:34.696Z,34.2
2022-10-06T11:39:06.141Z,34.3
2022-10-06T11:41:21.993Z,34.1
2022-10-06T11:43:37.649Z,33.2
2022-10-06T11:45:53.512Z,33.3
2022-10-06T11:48:09.161Z,33.9
2022-10-06T11:50:25.081Z,33.4
2022-10-06T11:52:40.717Z,33.8
2022-10-06T11:54:56.650Z,33.6
2022-10-06T11:57:12.268Z,33.4
2022-10-06T11:59:45.853Z,33.4
2022-10-06T12:02:01.511Z,33.8
2022-10-06T12:04:20.693Z,33.2
2022-10-06T12:06:57.551Z,33.9
2022-10-06T12:09:13.345Z,33.5
2022-10-06T12:11:29.168Z,33.8
2022-10-06T12:18:59.026Z,34.1
2022-10-06T12:21:15.185Z,33.9
2022-10-06T12:23:31.051Z,33.2
2022-10-06T12:25:46.675Z,32.5
2022-10-06T12:28:02.879Z,33.9
2022-10-06T12:30:18.397Z,34.2
2022-10-06T12:32:34.103Z,33.2
2022-10-06T12:34:49.806Z,33.3
2022-10-06T12:37:05.571Z,33.8
2022-10-06T12:39:21.458Z,33.6
2022-10-06T12:41:37.221Z,33.1
2022-10-06T12:43:53.057Z,33.1
2022-10-06T12:46:08.790Z,34.6
2022-10-06T12:48:24.556Z,34.3
2022-10-06T12:50:40.313Z,33.4
2022-10-06T12:52:56.163Z,33.6
2022-10-06T12:55:11.950Z,33.8
2022-10-06T12:57:27.714Z,33.8
2022-10-06T12:59:43.490Z,34.1
2022-10-06T13:01:59.275Z,33.4
2022-10-06T13:04:14.978Z,33.6
2022-10-06T13:06:30.897Z,33.4
2022-10-06T13:08:46.711Z,33.1
2022-10-06T13:11:02.506Z,33.4
2022-10-06T13:13:18.440Z,33.6
2022-10-06T13:15:34.618Z,33.6
2022-10-06T13:17:49.697Z,33.3
2022-10-06T13:20:05.662Z,33.1
2022-10-06T13:22:21.318Z,33.6
2022-10-06T13:24:37.082Z,33.3
2022-10-06T13:26:52.797Z,33.4
2022-10-06T13:29:08.673Z,33.1
2022-10-06T13:31:24.412Z,32.8
2022-10-06T13:33:40.149Z,32.8
2022-10-06T13:35:56.157Z,33.1
2022-10-06T13:38:11.999Z,33.4
2022-10-06T13:40:43.384Z,32.6
2022-10-06T13:42:46.307Z,33
2022-10-06T13:45:02.025Z,33.1
2022-10-06T13:47:17.847Z,32.8
2022-10-06T13:49:33.701Z,32.9
2022-10-06T13:51:49.533Z,33
2022-10-06T13:54:05.282Z,33.2
2022-10-06T13:56:21.168Z,33.4
2022-10-06T13:58:37.069Z,33.5
2022-10-06T14:00:52.773Z,33.3
2022-10-06T14:03:08.658Z,33.7
2022-10-06T14:05:25.052Z,33.4
2022-10-06T14:07:40.225Z,33.8
2022-10-06T14:09:56.104Z,33.6
2022-10-06T14:12:11.836Z,32.5
2022-10-06T14:14:27.626Z,32.9
2022-10-06T14:16:43.415Z,33
2022-10-06T14:18:59.367Z,33.1
2022-10-06T14:21:15.503Z,30.5
2022-10-06T14:23:30.919Z,32.4
2022-10-06T14:25:46.685Z,33
2022-10-06T14:28:02.095Z,33.1
2022-10-06T14:30:17.765Z,33.8
2022-10-06T14:32:33.607Z,33.1
2022-10-06T14:34:49.316Z,33.2
2022-10-06T14:37:05.123Z,33.2
2022-10-06T14:39:21.324Z,33.3
2022-10-06T14:41:36.911Z,33.1
2022-10-06T14:43:53.224Z,32.9
2022-10-06T14:46:08.644Z,33
2022-10-06T14:48:24.696Z,32.7
2022-10-06T14:50:41.137Z,30.7
2022-10-06T14:52:56.728Z,32.3
2022-10-06T14:55:12.923Z,30.5
2022-10-06T14:57:28.524Z,33.1
2022-10-06T14:59:44.409Z,30.6
2022-10-06T15:01:59.922Z,32.5
2022-10-06T15:04:15.521Z,32.4
2022-10-06T15:06:31.777Z,30.4
2022-10-06T15:08:47.441Z,32.9
2022-10-06T15:11:03.676Z,30.9
2022-10-06T15:13:19.392Z,32.1
2022-10-06T15:17:51.242Z,32.2
2022-10-06T15:20:08.087Z,31.4
2022-10-06T15:22:24.656Z,31.7
2022-10-06T15:24:41.184Z,30.9
2022-10-06T15:26:57.774Z,30.9
2022-10-06T15:29:14.521Z,30.4
2022-10-06T15:31:31.021Z,30.8
2022-10-06T15:33:49.847Z,31
2022-10-06T15:36:03.984Z,31
2022-10-06T15:38:20.388Z,30.9
2022-10-06T15:40:37.123Z,31.2
2022-10-06T15:42:53.408Z,30.9
2022-10-06T15:45:09.898Z,30.8
2022-10-06T15:47:26.375Z,31.1
2022-10-06T15:49:42.960Z,31
2022-10-06T15:51:59.550Z,30.8
2022-10-06T15:54:15.923Z,31.1
2022-10-06T15:56:32.063Z,31.1
2022-10-06T15:58:47.867Z,32.2
2022-10-06T16:01:04.015Z,32
2022-10-06T16:03:19.655Z,33.2
2022-10-06T16:05:36.797Z,32.6
2022-10-06T16:07:53.587Z,31.8
2022-10-06T16:10:10.317Z,31.7
2022-10-06T16:12:27.187Z,32.1
2022-10-06T16:14:43.403Z,31.9
2022-10-06T16:16:59.723Z,32
2022-10-06T16:19:13.943Z,33.1
2022-10-06T16:21:30.377Z,33.3
2022-10-06T16:23:46.770Z,32.9
2022-10-06T16:26:02.694Z,32.6
2022-10-06T16:28:19.029Z,33
2022-10-06T16:30:34.398Z,31.7
2022-10-06T16:32:50.686Z,33.5
2022-10-06T16:37:23.260Z,32.6
2022-10-06T16:39:40.078Z,33.1
2022-10-06T16:41:57.269Z,32.6
2022-10-06T16:44:14.091Z,32.4
2022-10-06T16:46:31.016Z,32.4
2022-10-06T16:48:47.279Z,32.4
2022-10-06T16:51:03.217Z,32.4
2022-10-06T16:53:20.086Z,32.1
2022-10-06T16:55:37.152Z,32.1
2022-10-06T16:57:53.975Z,32.2
2022-10-06T17:00:10.922Z,32.1
2022-10-06T17:02:27.209Z,32.1
2022-10-06T17:04:42.874Z,32.2
2022-10-06T17:06:59.921Z,32.2
2022-10-06T17:09:16.839Z,31.8
2022-10-06T17:11:49.525Z,32
2022-10-06T17:14:06.401Z,31.8
2022-10-06T17:16:23.140Z,31.9
2022-10-06T17:20:56.672Z,31.6
2022-10-06T17:23:32.117Z,31.9
2022-10-06T17:25:48.970Z,31.9
2022-10-06T17:28:05.986Z,31.9
2022-10-06T17:30:22.593Z,31.9
2022-10-06T17:32:40.128Z,31.8
2022-10-06T17:34:56.364Z,31.8
2022-10-06T17:37:13.524Z,31.6
2022-10-06T17:39:29.580Z,32.1
2022-10-06T17:41:45.227Z,31.9
2022-10-06T17:44:01.757Z,32.4
2022-10-06T17:46:17.626Z,31.6
2022-10-06T17:48:34.779Z,31.9
2022-10-06T17:50:51.759Z,31.8
2022-10-06T17:53:08.730Z,32
2022-10-06T17:55:25.440Z,31.9
2022-10-06T17:57:42.604Z,31.6
2022-10-06T17:59:59.307Z,32
2022-10-06T18:02:16.331Z,31.5
2022-10-06T18:04:33.019Z,31.9
2022-10-06T18:06:49.813Z,31.8
2022-10-06T18:09:06.980Z,31.9
2022-10-06T18:11:23.745Z,32.3
2022-10-06T18:13:40.689Z,31.9
2022-10-06T18:15:57.468Z,32.1
2022-10-06T18:18:14.539Z,32
2022-10-06T18:20:31.387Z,32.1
2022-10-06T18:22:48.426Z,32.1
2022-10-06T18:25:05.271Z,31.9
2022-10-06T18:27:21.960Z,32.3
2022-10-06T18:29:39.052Z,32
2022-10-06T18:31:55.651Z,31.9
2022-10-06T18:36:17.361Z,32.1
2022-10-06T18:38:33.946Z,31.4
2022-10-06T18:40:50.923Z,31.9
2022-10-06T18:43:07.709Z,32.1
2022-10-06T18:45:22.801Z,32.1
2022-10-06T18:47:40.005Z,32.4
2022-10-06T18:49:56.701Z,31.9
2022-10-06T18:52:12.880Z,32
2022-10-06T18:54:28.879Z,32.6
2022-10-06T18:56:46.212Z,32.3
2022-10-06T18:59:03.062Z,32.1
2022-10-06T19:01:20.071Z,32.2
2022-10-06T19:03:37.079Z,32
2022-10-06T19:05:53.890Z,32
2022-10-06T19:08:11.061Z,31.9
2022-10-06T19:10:27.818Z,32
2022-10-06T19:12:44.644Z,32
2022-10-06T19:15:01.685Z,32
2022-10-06T19:17:18.506Z,31.8
2022-10-06T19:21:53.729Z,31.8
2022-10-06T19:24:10.690Z,32
2022-10-06T19:26:27.441Z,31.8
2022-10-06T19:28:44.255Z,31.9
2022-10-06T19:31:01.126Z,31.8
2022-10-06T19:33:18.024Z,31.6
2022-10-06T19:35:34.779Z,32
2022-10-06T19:37:51.580Z,32.1
2022-10-06T19:40:08.441Z,31.5
2022-10-06T19:42:25.498Z,31.9
2022-10-06T19:44:43.225Z,31.8
2022-10-06T19:46:58.962Z,31.6
2022-10-06T19:49:16.058Z,31.9
2022-10-06T19:51:32.782Z,31.9
2022-10-06T19:53:49.984Z,32
2022-10-06T19:56:06.709Z,31.9
2022-10-06T19:58:23.571Z,31.8
2022-10-06T20:00:40.651Z,31.9
2022-10-06T20:02:57.757Z,31.9
2022-10-06T20:05:14.594Z,31.9
2022-10-06T20:07:31.473Z,31.8
2022-10-06T20:09:48.536Z,31.7
2022-10-06T20:12:04.857Z,32
2022-10-06T20:14:21.125Z,32.5
2022-10-06T20:16:36.509Z,32.9
2022-10-06T20:18:53.383Z,32.7
2022-10-06T20:21:10.161Z,32
2022-10-06T20:23:25.944Z,31.3
2022-10-06T20:25:43.138Z,32.1
2022-10-06T20:28:00.379Z,32.1
2022-10-06T20:30:17.202Z,31.9
2022-10-06T20:32:34.206Z,32.1
2022-10-06T20:34:51.081Z,32.1
2022-10-06T20:37:08.142Z,31.7
2022-10-06T20:41:42.135Z,31.9
2022-10-06T20:43:58.892Z,31.9
2022-10-06T20:46:16.129Z,31.8
2022-10-06T20:48:32.883Z,32.2
2022-10-06T20:50:49.945Z,31.8
2022-10-06T20:53:06.883Z,31.8
2022-10-06T20:55:23.911Z,32.1
2022-10-06T20:57:40.135Z,31.8
2022-10-06T20:59:55.854Z,32.2
2022-10-06T21:02:11.938Z,32.6
2022-10-06T21:04:28.822Z,32.3
2022-10-06T21:06:45.980Z,31.4
2022-10-06T21:09:02.957Z,31.7
2022-10-06T21:11:19.980Z,31.9
2022-10-06T21:13:37.156Z,31.8
2022-10-06T21:15:54.088Z,31.8
2022-10-06T21:18:10.923Z,31.9
2022-10-06T21:20:28.065Z,31.7
2022-10-06T21:22:44.938Z,32
2022-10-06T21:25:01.462Z,31.6
2022-10-06T21:27:17.254Z,32.6
2022-10-06T21:29:34.160Z,31.9
2022-10-06T21:31:51.387Z,31.5
2022-10-06T21:34:06.659Z,33.2
2022-10-06T21:36:23.984Z,32.4
2022-10-06T21:38:40.903Z,31.8
2022-10-06T21:40:58.100Z,31.4
2022-10-06T21:43:14.766Z,31.5
2022-10-06T21:45:33.113Z,31.8
2022-10-06T21:48:01.201Z,31.7
2022-10-06T21:50:18.210Z,32.4
2022-10-06T21:52:35.227Z,31.8
2022-10-06T21:54:52.111Z,31.6
2022-10-06T21:57:09.098Z,31.6
2022-10-06T21:59:25.903Z,31.6
2022-10-06T22:01:42.886Z,31.5
2022-10-06T22:03:59.642Z,31.8
2022-10-06T22:06:19.234Z,31.6
2022-10-06T22:08:33.633Z,31.9
2022-10-06T22:10:50.255Z,31.7
2022-10-06T22:13:07.155Z,31.8
2022-10-06T22:15:24.129Z,31.5
2022-10-06T22:17:41.223Z,31.8
2022-10-06T22:19:57.755Z,31.9
2022-10-06T22:22:14.607Z,31.8
2022-10-06T22:24:31.762Z,31.8
2022-10-06T22:26:48.370Z,31.9
2022-10-06T22:29:05.309Z,31.9
2022-10-06T22:31:25.937Z,31.7
2022-10-06T22:33:39.028Z,31.7
2022-10-06T22:35:55.951Z,31.8
2022-10-06T22:38:12.793Z,31.8
2022-10-06T22:40:29.772Z,31.7
2022-10-06T22:42:46.654Z,31.8
2022-10-06T22:45:03.032Z,31.8
2022-10-06T22:49:35.851Z,32.3
2022-10-06T22:51:52.299Z,31.4
2022-10-06T22:54:08.188Z,31.3
2022-10-06T22:56:25.317Z,31.8
2022-10-06T22:58:42.109Z,31.8
2022-10-06T23:00:59.116Z,31.5
2022-10-06T23:03:16.398Z,31.4
2022-10-06T23:05:33.209Z,31.6
2022-10-06T23:07:49.212Z,31.6
2022-10-06T23:10:04.905Z,31.4
2022-10-06T23:12:20.899Z,31.7
2022-10-06T23:14:37.808Z,32
2022-10-06T23:16:54.350Z,31.2
2022-10-06T23:21:27.479Z,32.3
2022-10-06T23:23:44.261Z,31.8
2022-10-06T23:26:01.214Z,31.3
2022-10-06T23:28:18.151Z,31.4
2022-10-06T23:30:35.041Z,31.5
2022-10-06T23:32:52.062Z,31.8
2022-10-06T23:35:08.926Z,31.7
2022-10-06T23:37:25.862Z,31.5
2022-10-06T23:39:42.640Z,31.9
2022-10-06T23:41:59.672Z,31.5
2022-10-06T23:44:16.471Z,31.9
2022-10-06T23:46:32.853Z,31.6
2022-10-06T23:48:48.257Z,31.4
2022-10-06T23:51:04.555Z,33.3
2022-10-06T23:53:21.540Z,32.1
2022-10-06T23:55:38.821Z,31.8
2022-10-06T23:57:55.644Z,30.8
